Beaverton, OR

3:07 PM PDT on March 24, 2017 (GMT -0700)
Pearson | | Change Station
Active Advisory: Flood Warning

Elev 23 ft 45.62 °N, 122.66 °W | Updated 14 minutes ago

Rain
Rain
52 °F
Feels Like 52 °F
N
5
Wind Variable Wind from East

Today
High -- | Low -- °F
--% Chance of Precip.
Yesterday
High -- | Low -- °F
Precip. -- in
Pressure 29.91 in
Visibility 10.0 miles
Clouds Mostly Cloudy 2100 ft
Overcast 3000 ft
Dew Point 47 °F
Humidity 83%
Rainfall 0.48 in
Snow Depth Not available.
7:06 AM 7:29 PM
Waning Crescent, 12% visible
METAR KVUO 242153Z AUTO 10004KT 10SM BKN021 OVC030 11/08 A2990 RMK AO2 RAE38 SLP126 P0001 T01110083
Pressure 29.91 in
Visibility 10.0 miles
Clouds Mostly Cloudy 2100 ft
Overcast 3000 ft
Dew Point 47 °F
Humidity 83%
Rainfall 0.48 in
Snow Depth Not available.
7:06 AM 7:29 PM
Waning Crescent, 12% visible
METAR KVUO 242153Z AUTO 10004KT 10SM BKN021 OVC030 11/08 A2990 RMK AO2 RAE38 SLP126 P0001 T01110083

Get Your Daily Forecast Email!

Thanks for signing up!

Be on the lookout for a verification email in your inbox.

You'll start receiving severe weather alerts in your inbox..

×

10-Day Weather Forecast

Almanac

Astronomy

Mar. 24, 2017 Rise Set
Actual Time
Civil Twilight
Nautical Twilight
Astronomical Twilight
Moon
Length of Visible Light
Length of Day
Tomorrow will be .
, % of the Moon is Illuminated

Today's Extremes

State Highs State Lows

Community

WunderPhotos

Upload Photos

1,962,540 photos uploaded!

WunderBlog® & News

Nearby

Air Quality

  Air Quality AQ Index Pollutant
Not available.

Snow Depth

Station Depth Elevation

Earthquake Activity

City Distance Mag. Time & Date
Minimum magnitude displayed is 2.5.

Earthquake Activity

City Distance Mag. Time & Date
Minimum magnitude displayed is 2.5.

Coastal Water Temperatures

Place Temperature

Stations

Nearby Weather Stations

Station Location Temp. Windchill Dew Point Humidity Wind Precip. Elev Updated Type
                   

Watches & Warnings

Flood Warning
Issued: 4:08 PM PDT Mar. 23, 2017 – National Weather Service

The Flood Warning continues for
the Columbia River at Vancouver.
* At 4 PM Thursday the stage was... 16.8 feet.
* Flood stage is 16.0 feet.
* Forecast... this river will fluctuate between 16.5 and 17.2 feet
through Sunday.
* Impact... above 17 feet, expect flooding of some lowland access
roads, parking areas, and trails in the Portland and Vancouver
area, including Sauvie Island and Vancouver Lake. Access to some
house-boat communities may be impaired.


Lat... Lon 4555 12228 4567 12265 4576 12274 4576 12286 4556 12269